sensor_id;sensor_type;location;lat;lon;timestamp;P1;durP1;ratioP1;P2;durP2;ratioP2
70165;SDS011;57541;47.408;18.822;2023-04-03T00:00:02;9.98;;;5.60;;
70165;SDS011;57541;47.408;18.822;2023-04-03T00:00:35;9.63;;;5.78;;
70165;SDS011;57541;47.408;18.822;2023-04-03T00:01:07;10.38;;;5.78;;
70165;SDS011;57541;47.408;18.822;2023-04-03T00:01:38;9.60;;;4.85;;
70165;SDS011;57541;47.408;18.822;2023-04-03T00:02:10;9.95;;;5.78;;
70165;SDS011;57541;47.408;18.822;2023-04-03T00:02:42;10.02;;;5.72;;
70165;SDS011;57541;47.408;18.822;2023-04-03T00:03:13;9.57;;;5.60;;
70165;SDS011;57541;47.408;18.822;2023-04-03T00:03:45;10.23;;;5.35;;
70165;SDS011;57541;47.408;18.822;2023-04-03T00:04:18;10.20;;;5.75;;
70165;SDS011;57541;47.408;18.822;2023-04-03T00:04:49;10.13;;;5.72;;
70165;SDS011;57541;47.408;18.822;2023-04-03T00:05:21;9.00;;;5.00;;
70165;SDS011;57541;47.408;18.822;2023-04-03T00:05:53;10.05;;;5.70;;
70165;SDS011;57541;47.408;18.822;2023-04-03T00:06:25;9.57;;;5.30;;
70165;SDS011;57541;47.408;18.822;2023-04-03T00:06:57;9.77;;;5.47;;
70165;SDS011;57541;47.408;18.822;2023-04-03T00:07:28;9.43;;;5.47;;
70165;SDS011;57541;47.408;18.822;2023-04-03T00:08:00;9.18;;;5.30;;
70165;SDS011;57541;47.408;18.822;2023-04-03T00:08:33;11.98;;;5.60;;
70165;SDS011;57541;47.408;18.822;2023-04-03T00:09:05;9.38;;;5.18;;
70165;SDS011;57541;47.408;18.822;2023-04-03T00:09:39;8.85;;;5.20;;
70165;SDS011;57541;47.408;18.822;2023-04-03T00:10:11;10.30;;;5.53;;
70165;SDS011;57541;47.408;18.822;2023-04-03T00:10:43;9.55;;;5.20;;
70165;SDS011;57541;47.408;18.822;2023-04-03T00:11:15;9.98;;;5.50;;
70165;SDS011;57541;47.408;18.822;2023-04-03T00:11:47;8.93;;;5.18;;
70165;SDS011;57541;47.408;18.822;2023-04-03T00:12:19;9.77;;;5.15;;
70165;SDS011;57541;47.408;18.822;2023-04-03T00:12:51;8.90;;;4.90;;
70165;SDS011;57541;47.408;18.822;2023-04-03T00:13:23;8.80;;;5.18;;
70165;SDS011;57541;47.408;18.822;2023-04-03T00:13:54;9.63;;;5.63;;
70165;SDS011;57541;47.408;18.822;2023-04-03T00:14:26;9.18;;;4.90;;
70165;SDS011;57541;47.408;18.822;2023-04-03T00:14:58;11.77;;;5.38;;
70165;SDS011;57541;47.408;18.822;2023-04-03T00:15:30;8.70;;;4.90;;
70165;SDS011;57541;47.408;18.822;2023-04-03T00:16:02;9.27;;;4.82;;
70165;SDS011;57541;47.408;18.822;2023-04-03T00:16:34;8.30;;;4.38;;
70165;SDS011;57541;47.408;18.822;2023-04-03T00:17:06;9.88;;;4.88;;
70165;SDS011;57541;47.408;18.822;2023-04-03T00:17:38;10.45;;;5.13;;
70165;SDS011;57541;47.408;18.822;2023-04-03T00:18:09;8.35;;;4.78;;
70165;SDS011;57541;47.408;18.822;2023-04-03T00:18:41;10.05;;;4.88;;
70165;SDS011;57541;47.408;18.822;2023-04-03T00:19:13;8.52;;;4.75;;
70165;SDS011;57541;47.408;18.822;2023-04-03T00:19:45;8.43;;;4.57;;
70165;SDS011;57541;47.408;18.822;2023-04-03T00:20:17;9.43;;;4.93;;
70165;SDS011;57541;47.408;18.822;2023-04-03T00:20:49;8.73;;;4.93;;
70165;SDS011;57541;47.408;18.822;2023-04-03T00:21:21;8.60;;;4.88;;
70165;SDS011;57541;47.408;18.822;2023-04-03T00:21:53;8.63;;;5.00;;
70165;SDS011;57541;47.408;18.822;2023-04-03T00:22:24;9.80;;;4.80;;
70165;SDS011;57541;47.408;18.822;2023-04-03T00:22:58;8.75;;;4.90;;
70165;SDS011;57541;47.408;18.822;2023-04-03T00:23:30;8.95;;;4.78;;
70165;SDS011;57541;47.408;18.822;2023-04-03T00:24:02;8.90;;;4.80;;
70165;SDS011;57541;47.408;18.822;2023-04-03T00:24:33;7.95;;;4.03;;
70165;SDS011;57541;47.408;18.822;2023-04-03T00:25:05;9.27;;;5.07;;
70165;SDS011;57541;47.408;18.822;2023-04-03T00:25:37;9.07;;;5.03;;
70165;SDS011;57541;47.408;18.822;2023-04-03T00:26:09;8.52;;;4.55;;
70165;SDS011;57541;47.408;18.822;2023-04-03T00:26:41;8.65;;;4.60;;
70165;SDS011;57541;47.408;18.822;2023-04-03T00:27:12;8.70;;;4.30;;
70165;SDS011;57541;47.408;18.822;2023-04-03T00:27:44;8.40;;;4.85;;
70165;SDS011;57541;47.408;18.822;2023-04-03T00:28:16;8.55;;;4.97;;
70165;SDS011;57541;47.408;18.822;2023-04-03T00:28:47;9.20;;;4.68;;
70165;SDS011;57541;47.408;18.822;2023-04-03T00:29:19;8.65;;;4.43;;
70165;SDS011;57541;47.408;18.822;2023-04-03T00:29:51;9.35;;;4.80;;
70165;SDS011;57541;47.408;18.822;2023-04-03T00:30:23;8.25;;;4.43;;
70165;SDS011;57541;47.408;18.822;2023-04-03T00:30:54;9.35;;;4.97;;
70165;SDS011;57541;47.408;18.822;2023-04-03T00:31:26;8.88;;;4.65;;
70165;SDS011;57541;47.408;18.822;2023-04-03T00:31:58;9.15;;;4.50;;
70165;SDS011;57541;47.408;18.822;2023-04-03T00:32:30;8.38;;;4.50;;
70165;SDS011;57541;47.408;18.822;2023-04-03T00:33:01;9.00;;;4.50;;
70165;SDS011;57541;47.408;18.822;2023-04-03T00:33:33;8.25;;;4.45;;
70165;SDS011;57541;47.408;18.822;2023-04-03T00:34:05;8.60;;;4.93;;
70165;SDS011;57541;47.408;18.822;2023-04-03T00:34:36;7.85;;;4.38;;
70165;SDS011;57541;47.408;18.822;2023-04-03T00:35:08;8.43;;;4.70;;
70165;SDS011;57541;47.408;18.822;2023-04-03T00:35:41;8.38;;;4.95;;
70165;SDS011;57541;47.408;18.822;2023-04-03T00:36:13;9.77;;;4.95;;
70165;SDS011;57541;47.408;18.822;2023-04-03T00:36:45;8.77;;;4.63;;
70165;SDS011;57541;47.408;18.822;2023-04-03T00:37:17;10.18;;;4.72;;
70165;SDS011;57541;47.408;18.822;2023-04-03T00:37:50;8.43;;;4.72;;
70165;SDS011;57541;47.408;18.822;2023-04-03T00:38:24;8.02;;;4.63;;
70165;SDS011;57541;47.408;18.822;2023-04-03T00:38:55;8.32;;;4.47;;
70165;SDS011;57541;47.408;18.822;2023-04-03T00:39:27;9.48;;;5.47;;
70165;SDS011;57541;47.408;18.822;2023-04-03T00:39:59;9.35;;;4.70;;
70165;SDS011;57541;47.408;18.822;2023-04-03T00:40:34;8.20;;;4.70;;
70165;SDS011;57541;47.408;18.822;2023-04-03T00:41:12;8.60;;;4.43;;
70165;SDS011;57541;47.408;18.822;2023-04-03T00:41:44;8.73;;;4.75;;
70165;SDS011;57541;47.408;18.822;2023-04-03T00:42:16;7.50;;;4.45;;
70165;SDS011;57541;47.408;18.822;2023-04-03T00:42:48;8.65;;;4.72;;
70165;SDS011;57541;47.408;18.822;2023-04-03T00:43:24;8.48;;;4.22;;
70165;SDS011;57541;47.408;18.822;2023-04-03T00:43:57;7.43;;;4.05;;
70165;SDS011;57541;47.408;18.822;2023-04-03T00:45:37;8.27;;;4.22;;
70165;SDS011;57541;47.408;18.822;2023-04-03T00:46:11;9.00;;;4.57;;
70165;SDS011;57541;47.408;18.822;2023-04-03T00:46:42;8.27;;;4.45;;
70165;SDS011;57541;47.408;18.822;2023-04-03T00:47:15;7.25;;;4.10;;
70165;SDS011;57541;47.408;18.822;2023-04-03T00:47:48;8.70;;;4.72;;
70165;SDS011;57541;47.408;18.822;2023-04-03T00:48:21;8.30;;;4.20;;
70165;SDS011;57541;47.408;18.822;2023-04-03T00:48:57;7.32;;;4.05;;
70165;SDS011;57541;47.408;18.822;2023-04-03T00:49:29;8.88;;;4.40;;
70165;SDS011;57541;47.408;18.822;2023-04-03T00:50:01;7.43;;;4.22;;
70165;SDS011;57541;47.408;18.822;2023-04-03T00:50:34;8.05;;;4.35;;
70165;SDS011;57541;47.408;18.822;2023-04-03T00:51:11;8.18;;;4.20;;
70165;SDS011;57541;47.408;18.822;2023-04-03T00:51:47;8.88;;;4.47;;
70165;SDS011;57541;47.408;18.822;2023-04-03T00:52:21;7.35;;;3.92;;
70165;SDS011;57541;47.408;18.822;2023-04-03T00:52:56;7.95;;;4.40;;
70165;SDS011;57541;47.408;18.822;2023-04-03T00:53:31;8.48;;;4.13;;
70165;SDS011;57541;47.408;18.822;2023-04-03T00:54:06;8.00;;;4.32;;
70165;SDS011;57541;47.408;18.822;2023-04-03T00:54:39;8.20;;;4.57;;
70165;SDS011;57541;47.408;18.822;2023-04-03T00:55:13;8.15;;;4.68;;
70165;SDS011;57541;47.408;18.822;2023-04-03T00:55:46;7.80;;;4.10;;
70165;SDS011;57541;47.408;18.822;2023-04-03T00:56:19;8.70;;;4.28;;
70165;SDS011;57541;47.408;18.822;2023-04-03T00:56:55;7.18;;;4.13;;
70165;SDS011;57541;47.408;18.822;2023-04-03T00:57:28;8.57;;;4.57;;
70165;SDS011;57541;47.408;18.822;2023-04-03T00:58:02;8.00;;;3.88;;
70165;SDS011;57541;47.408;18.822;2023-04-03T00:58:37;8.32;;;4.18;;
70165;SDS011;57541;47.408;18.822;2023-04-03T00:59:20;7.95;;;4.13;;
70165;SDS011;57541;47.408;18.822;2023-04-03T00:59:57;8.20;;;4.30;;
70165;SDS011;57541;47.408;18.822;2023-04-03T01:00:32;6.97;;;3.88;;
70165;SDS011;57541;47.408;18.822;2023-04-03T01:01:07;7.85;;;4.30;;
70165;SDS011;57541;47.408;18.822;2023-04-03T01:01:43;8.68;;;4.28;;
70165;SDS011;57541;47.408;18.822;2023-04-03T01:02:15;7.65;;;4.13;;
70165;SDS011;57541;47.408;18.822;2023-04-03T01:02:47;8.00;;;3.88;;
70165;SDS011;57541;47.408;18.822;2023-04-03T01:03:19;7.35;;;4.03;;
70165;SDS011;57541;47.408;18.822;2023-04-03T01:03:51;7.80;;;3.95;;
70165;SDS011;57541;47.408;18.822;2023-04-03T01:04:30;7.35;;;3.90;;
70165;SDS011;57541;47.408;18.822;2023-04-03T01:05:10;7.88;;;3.95;;
70165;SDS011;57541;47.408;18.822;2023-04-03T01:05:43;8.50;;;4.00;;
70165;SDS011;57541;47.408;18.822;2023-04-03T01:06:16;8.38;;;4.22;;
70165;SDS011;57541;47.408;18.822;2023-04-03T01:06:48;8.48;;;4.28;;
70165;SDS011;57541;47.408;18.822;2023-04-03T01:07:25;8.52;;;4.20;;
70165;SDS011;57541;47.408;18.822;2023-04-03T01:08:00;8.98;;;3.90;;
70165;SDS011;57541;47.408;18.822;2023-04-03T01:08:32;9.13;;;4.13;;
70165;SDS011;57541;47.408;18.822;2023-04-03T01:09:04;7.78;;;4.45;;
70165;SDS011;57541;47.408;18.822;2023-04-03T01:09:36;9.25;;;4.78;;
70165;SDS011;57541;47.408;18.822;2023-04-03T01:10:10;7.75;;;4.18;;
70165;SDS011;57541;47.408;18.822;2023-04-03T01:10:45;8.07;;;4.32;;
70165;SDS011;57541;47.408;18.822;2023-04-03T01:11:17;8.65;;;4.40;;
70165;SDS011;57541;47.408;18.822;2023-04-03T01:11:49;7.05;;;3.75;;
70165;SDS011;57541;47.408;18.822;2023-04-03T01:12:52;7.57;;;3.90;;
70165;SDS011;57541;47.408;18.822;2023-04-03T01:13:25;8.38;;;4.20;;
70165;SDS011;57541;47.408;18.822;2023-04-03T01:13:58;7.57;;;3.95;;
70165;SDS011;57541;47.408;18.822;2023-04-03T01:14:32;8.93;;;4.15;;
70165;SDS011;57541;47.408;18.822;2023-04-03T01:15:06;8.57;;;4.30;;
70165;SDS011;57541;47.408;18.822;2023-04-03T01:15:40;7.93;;;4.05;;
70165;SDS011;57541;47.408;18.822;2023-04-03T01:16:12;7.07;;;3.80;;
70165;SDS011;57541;47.408;18.822;2023-04-03T01:16:51;7.75;;;3.83;;
70165;SDS011;57541;47.408;18.822;2023-04-03T01:17:57;7.40;;;4.00;;
70165;SDS011;57541;47.408;18.822;2023-04-03T01:18:29;7.75;;;3.60;;
70165;SDS011;57541;47.408;18.822;2023-04-03T01:19:03;8.05;;;3.90;;
70165;SDS011;57541;47.408;18.822;2023-04-03T01:19:43;7.65;;;3.85;;
70165;SDS011;57541;47.408;18.822;2023-04-03T01:22:30;7.07;;;3.78;;
70165;SDS011;57541;47.408;18.822;2023-04-03T01:23:53;7.15;;;3.83;;
70165;SDS011;57541;47.408;18.822;2023-04-03T01:24:36;7.93;;;4.00;;
70165;SDS011;57541;47.408;18.822;2023-04-03T01:25:10;7.30;;;3.85;;
70165;SDS011;57541;47.408;18.822;2023-04-03T01:26:21;7.85;;;4.00;;
70165;SDS011;57541;47.408;18.822;2023-04-03T01:26:52;7.40;;;3.72;;
70165;SDS011;57541;47.408;18.822;2023-04-03T01:27:24;7.25;;;3.90;;
70165;SDS011;57541;47.408;18.822;2023-04-03T01:27:57;9.43;;;4.32;;
70165;SDS011;57541;47.408;18.822;2023-04-03T01:28:30;8.27;;;4.45;;
70165;SDS011;57541;47.408;18.822;2023-04-03T01:29:04;7.15;;;3.85;;
70165;SDS011;57541;47.408;18.822;2023-04-03T01:29:35;6.80;;;3.85;;
70165;SDS011;57541;47.408;18.822;2023-04-03T01:30:08;7.55;;;3.90;;
70165;SDS011;57541;47.408;18.822;2023-04-03T01:30:48;7.05;;;3.45;;
70165;SDS011;57541;47.408;18.822;2023-04-03T01:31:28;7.85;;;3.78;;
70165;SDS011;57541;47.408;18.822;2023-04-03T01:32:05;6.72;;;3.58;;
70165;SDS011;57541;47.408;18.822;2023-04-03T01:32:37;6.95;;;4.00;;
70165;SDS011;57541;47.408;18.822;2023-04-03T01:33:09;6.75;;;3.70;;
70165;SDS011;57541;47.408;18.822;2023-04-03T01:33:40;6.75;;;3.78;;
70165;SDS011;57541;47.408;18.822;2023-04-03T01:34:12;7.72;;;3.22;;
70165;SDS011;57541;47.408;18.822;2023-04-03T01:34:44;6.90;;;3.58;;
70165;SDS011;57541;47.408;18.822;2023-04-03T01:35:16;7.38;;;3.55;;
70165;SDS011;57541;47.408;18.822;2023-04-03T01:35:47;6.82;;;3.58;;
70165;SDS011;57541;47.408;18.822;2023-04-03T01:36:21;7.20;;;3.90;;
70165;SDS011;57541;47.408;18.822;2023-04-03T01:36:57;6.35;;;3.53;;
70165;SDS011;57541;47.408;18.822;2023-04-03T01:37:29;7.43;;;3.75;;
70165;SDS011;57541;47.408;18.822;2023-04-03T01:38:01;6.82;;;3.55;;
70165;SDS011;57541;47.408;18.822;2023-04-03T01:38:33;8.02;;;3.83;;
70165;SDS011;57541;47.408;18.822;2023-04-03T01:39:05;6.65;;;3.63;;
70165;SDS011;57541;47.408;18.822;2023-04-03T01:39:37;8.10;;;3.50;;
70165;SDS011;57541;47.408;18.822;2023-04-03T01:40:09;7.28;;;3.95;;
70165;SDS011;57541;47.408;18.822;2023-04-03T01:40:40;7.65;;;3.67;;
70165;SDS011;57541;47.408;18.822;2023-04-03T01:41:12;7.45;;;3.97;;
70165;SDS011;57541;47.408;18.822;2023-04-03T01:41:44;10.60;;;3.45;;
70165;SDS011;57541;47.408;18.822;2023-04-03T01:42:16;7.57;;;4.10;;
70165;SDS011;57541;47.408;18.822;2023-04-03T01:42:47;7.40;;;3.50;;
70165;SDS011;57541;47.408;18.822;2023-04-03T01:43:19;7.15;;;3.97;;
70165;SDS011;57541;47.408;18.822;2023-04-03T01:43:51;6.88;;;3.58;;
70165;SDS011;57541;47.408;18.822;2023-04-03T01:44:23;6.68;;;3.20;;
70165;SDS011;57541;47.408;18.822;2023-04-03T01:44:54;7.15;;;4.07;;
70165;SDS011;57541;47.408;18.822;2023-04-03T01:45:26;7.30;;;3.88;;
70165;SDS011;57541;47.408;18.822;2023-04-03T01:45:58;7.63;;;3.78;;
70165;SDS011;57541;47.408;18.822;2023-04-03T01:46:30;7.13;;;3.80;;
70165;SDS011;57541;47.408;18.822;2023-04-03T01:47:02;7.47;;;3.90;;
70165;SDS011;57541;47.408;18.822;2023-04-03T01:47:36;8.23;;;3.60;;
70165;SDS011;57541;47.408;18.822;2023-04-03T01:48:08;8.13;;;3.80;;
70165;SDS011;57541;47.408;18.822;2023-04-03T01:48:40;7.05;;;3.70;;
70165;SDS011;57541;47.408;18.822;2023-04-03T01:49:11;7.63;;;3.60;;
70165;SDS011;57541;47.408;18.822;2023-04-03T01:49:43;7.43;;;4.03;;
70165;SDS011;57541;47.408;18.822;2023-04-03T01:50:15;6.30;;;3.53;;
70165;SDS011;57541;47.408;18.822;2023-04-03T01:50:46;7.45;;;3.53;;
70165;SDS011;57541;47.408;18.822;2023-04-03T01:51:18;8.15;;;4.15;;
70165;SDS011;57541;47.408;18.822;2023-04-03T01:51:50;7.88;;;3.55;;
70165;SDS011;57541;47.408;18.822;2023-04-03T01:52:21;7.18;;;3.60;;
70165;SDS011;57541;47.408;18.822;2023-04-03T01:52:53;6.85;;;3.60;;
70165;SDS011;57541;47.408;18.822;2023-04-03T01:53:25;7.68;;;3.65;;
70165;SDS011;57541;47.408;18.822;2023-04-03T01:53:56;7.32;;;4.00;;
70165;SDS011;57541;47.408;18.822;2023-04-03T01:54:28;7.20;;;3.60;;
70165;SDS011;57541;47.408;18.822;2023-04-03T01:54:59;7.95;;;4.00;;
70165;SDS011;57541;47.408;18.822;2023-04-03T01:55:31;6.80;;;3.58;;
70165;SDS011;57541;47.408;18.822;2023-04-03T01:56:03;8.05;;;4.25;;
70165;SDS011;57541;47.408;18.822;2023-04-03T01:56:35;7.25;;;4.20;;
70165;SDS011;57541;47.408;18.822;2023-04-03T01:57:07;7.20;;;3.85;;
70165;SDS011;57541;47.408;18.822;2023-04-03T01:57:39;8.25;;;4.05;;
70165;SDS011;57541;47.408;18.822;2023-04-03T01:58:10;6.57;;;3.60;;
70165;SDS011;57541;47.408;18.822;2023-04-03T01:58:42;8.25;;;3.85;;
70165;SDS011;57541;47.408;18.822;2023-04-03T01:59:14;7.75;;;4.05;;
70165;SDS011;57541;47.408;18.822;2023-04-03T01:59:48;8.60;;;4.20;;
70165;SDS011;57541;47.408;18.822;2023-04-03T02:00:19;7.53;;;3.90;;
70165;SDS011;57541;47.408;18.822;2023-04-03T02:00:51;7.70;;;3.88;;
70165;SDS011;57541;47.408;18.822;2023-04-03T02:01:23;7.10;;;3.80;;
70165;SDS011;57541;47.408;18.822;2023-04-03T02:01:57;7.90;;;4.20;;
70165;SDS011;57541;47.408;18.822;2023-04-03T02:02:28;8.35;;;4.10;;
70165;SDS011;57541;47.408;18.822;2023-04-03T02:03:00;6.68;;;3.97;;
70165;SDS011;57541;47.408;18.822;2023-04-03T02:03:32;6.70;;;3.65;;
70165;SDS011;57541;47.408;18.822;2023-04-03T02:04:04;7.70;;;4.18;;
70165;SDS011;57541;47.408;18.822;2023-04-03T02:04:35;7.68;;;4.22;;
70165;SDS011;57541;47.408;18.822;2023-04-03T02:05:07;7.13;;;3.80;;
70165;SDS011;57541;47.408;18.822;2023-04-03T02:05:39;7.45;;;4.07;;
70165;SDS011;57541;47.408;18.822;2023-04-03T02:06:11;7.95;;;4.15;;
70165;SDS011;57541;47.408;18.822;2023-04-03T02:06:43;7.25;;;4.07;;
70165;SDS011;57541;47.408;18.822;2023-04-03T02:07:14;7.75;;;3.80;;
70165;SDS011;57541;47.408;18.822;2023-04-03T02:07:46;8.05;;;4.35;;
70165;SDS011;57541;47.408;18.822;2023-04-03T02:08:18;7.55;;;3.72;;
70165;SDS011;57541;47.408;18.822;2023-04-03T02:08:49;8.15;;;4.20;;
70165;SDS011;57541;47.408;18.822;2023-04-03T02:09:21;7.15;;;4.00;;
70165;SDS011;57541;47.408;18.822;2023-04-03T02:09:53;7.75;;;4.22;;
70165;SDS011;57541;47.408;18.822;2023-04-03T02:10:24;9.05;;;4.45;;
70165;SDS011;57541;47.408;18.822;2023-04-03T02:10:56;8.23;;;4.22;;
70165;SDS011;57541;47.408;18.822;2023-04-03T02:11:28;8.48;;;4.32;;
70165;SDS011;57541;47.408;18.822;2023-04-03T02:11:59;8.63;;;4.25;;
70165;SDS011;57541;47.408;18.822;2023-04-03T02:12:31;7.55;;;3.90;;
70165;SDS011;57541;47.408;18.822;2023-04-03T02:13:03;8.02;;;4.30;;
70165;SDS011;57541;47.408;18.822;2023-04-03T02:13:35;8.05;;;4.20;;
70165;SDS011;57541;47.408;18.822;2023-04-03T02:14:07;7.55;;;4.10;;
70165;SDS011;57541;47.408;18.822;2023-04-03T02:14:38;8.48;;;4.60;;
70165;SDS011;57541;47.408;18.822;2023-04-03T02:15:10;7.50;;;4.20;;
70165;SDS011;57541;47.408;18.822;2023-04-03T02:15:42;7.70;;;4.43;;
70165;SDS011;57541;47.408;18.822;2023-04-03T02:16:13;8.55;;;4.18;;
70165;SDS011;57541;47.408;18.822;2023-04-03T02:16:45;8.18;;;4.28;;
70165;SDS011;57541;47.408;18.822;2023-04-03T02:17:17;7.50;;;4.30;;
70165;SDS011;57541;47.408;18.822;2023-04-03T02:17:48;8.15;;;4.32;;
70165;SDS011;57541;47.408;18.822;2023-04-03T02:18:20;6.60;;;3.70;;
70165;SDS011;57541;47.408;18.822;2023-04-03T02:18:52;8.05;;;4.55;;
70165;SDS011;57541;47.408;18.822;2023-04-03T02:19:23;8.95;;;4.65;;
70165;SDS011;57541;47.408;18.822;2023-04-03T02:19:55;7.68;;;4.32;;
70165;SDS011;57541;47.408;18.822;2023-04-03T02:20:27;8.38;;;4.10;;
70165;SDS011;57541;47.408;18.822;2023-04-03T02:20:58;8.20;;;4.15;;
70165;SDS011;57541;47.408;18.822;2023-04-03T02:21:30;8.27;;;4.25;;
70165;SDS011;57541;47.408;18.822;2023-04-03T02:22:02;8.02;;;4.15;;
70165;SDS011;57541;47.408;18.822;2023-04-03T02:22:35;7.97;;;4.45;;
70165;SDS011;57541;47.408;18.822;2023-04-03T02:23:07;7.88;;;4.22;;
70165;SDS011;57541;47.408;18.822;2023-04-03T02:23:39;8.27;;;4.30;;
70165;SDS011;57541;47.408;18.822;2023-04-03T02:24:10;8.95;;;4.80;;
70165;SDS011;57541;47.408;18.822;2023-04-03T02:24:42;8.20;;;4.20;;
70165;SDS011;57541;47.408;18.822;2023-04-03T02:25:14;7.82;;;4.43;;
70165;SDS011;57541;47.408;18.822;2023-04-03T02:25:45;7.82;;;4.00;;
70165;SDS011;57541;47.408;18.822;2023-04-03T02:26:17;9.90;;;4.50;;
70165;SDS011;57541;47.408;18.822;2023-04-03T02:26:49;8.73;;;4.57;;
70165;SDS011;57541;47.408;18.822;2023-04-03T02:27:20;7.18;;;4.22;;
70165;SDS011;57541;47.408;18.822;2023-04-03T02:27:52;8.35;;;4.43;;
70165;SDS011;57541;47.408;18.822;2023-04-03T02:28:23;8.80;;;4.43;;
70165;SDS011;57541;47.408;18.822;2023-04-03T02:28:56;9.07;;;4.50;;
70165;SDS011;57541;47.408;18.822;2023-04-03T02:29:27;9.07;;;4.60;;
70165;SDS011;57541;47.408;18.822;2023-04-03T02:29:59;8.35;;;4.30;;
70165;SDS011;57541;47.408;18.822;2023-04-03T02:30:30;7.93;;;4.25;;
70165;SDS011;57541;47.408;18.822;2023-04-03T02:31:02;8.23;;;4.55;;
70165;SDS011;57541;47.408;18.822;2023-04-03T02:31:34;8.32;;;4.82;;
70165;SDS011;57541;47.408;18.822;2023-04-03T02:32:06;7.78;;;4.32;;
70165;SDS011;57541;47.408;18.822;2023-04-03T02:32:38;7.13;;;4.10;;
70165;SDS011;57541;47.408;18.822;2023-04-03T02:33:09;8.60;;;4.78;;
70165;SDS011;57541;47.408;18.822;2023-04-03T02:33:41;7.82;;;4.75;;
70165;SDS011;57541;47.408;18.822;2023-04-03T02:34:13;7.45;;;4.10;;
70165;SDS011;57541;47.408;18.822;2023-04-03T02:34:45;7.47;;;4.30;;
70165;SDS011;57541;47.408;18.822;2023-04-03T02:35:17;9.82;;;4.30;;
70165;SDS011;57541;47.408;18.822;2023-04-03T02:35:52;8.55;;;4.20;;
70165;SDS011;57541;47.408;18.822;2023-04-03T02:36:24;8.57;;;4.63;;
70165;SDS011;57541;47.408;18.822;2023-04-03T02:36:56;7.97;;;4.43;;
70165;SDS011;57541;47.408;18.822;2023-04-03T02:37:27;8.00;;;4.47;;
70165;SDS011;57541;47.408;18.822;2023-04-03T02:37:59;8.20;;;4.40;;
70165;SDS011;57541;47.408;18.822;2023-04-03T02:38:31;8.43;;;4.65;;
70165;SDS011;57541;47.408;18.822;2023-04-03T02:39:03;8.05;;;4.45;;
70165;SDS011;57541;47.408;18.822;2023-04-03T02:39:34;8.40;;;4.63;;
70165;SDS011;57541;47.408;18.822;2023-04-03T02:40:06;7.40;;;4.25;;
70165;SDS011;57541;47.408;18.822;2023-04-03T02:40:39;7.63;;;4.40;;
70165;SDS011;57541;47.408;18.822;2023-04-03T02:41:11;8.65;;;4.55;;
70165;SDS011;57541;47.408;18.822;2023-04-03T02:41:43;8.50;;;4.78;;
70165;SDS011;57541;47.408;18.822;2023-04-03T02:42:14;8.02;;;4.65;;
70165;SDS011;57541;47.408;18.822;2023-04-03T02:42:46;9.05;;;4.40;;
70165;SDS011;57541;47.408;18.822;2023-04-03T02:43:18;7.60;;;4.10;;
70165;SDS011;57541;47.408;18.822;2023-04-03T02:43:49;9.68;;;4.70;;
70165;SDS011;57541;47.408;18.822;2023-04-03T02:44:21;9.13;;;4.40;;
70165;SDS011;57541;47.408;18.822;2023-04-03T02:44:54;7.90;;;4.18;;
70165;SDS011;57541;47.408;18.822;2023-04-03T02:45:28;9.13;;;4.75;;
70165;SDS011;57541;47.408;18.822;2023-04-03T02:46:00;8.10;;;4.57;;
70165;SDS011;57541;47.408;18.822;2023-04-03T02:46:32;8.02;;;4.55;;
70165;SDS011;57541;47.408;18.822;2023-04-03T02:47:04;9.63;;;4.60;;
70165;SDS011;57541;47.408;18.822;2023-04-03T02:47:36;7.45;;;4.32;;
70165;SDS011;57541;47.408;18.822;2023-04-03T02:48:08;8.18;;;4.55;;
70165;SDS011;57541;47.408;18.822;2023-04-03T02:48:40;9.55;;;4.80;;
70165;SDS011;57541;47.408;18.822;2023-04-03T02:49:11;8.10;;;4.43;;
70165;SDS011;57541;47.408;18.822;2023-04-03T02:49:43;8.60;;;4.50;;
70165;SDS011;57541;47.408;18.822;2023-04-03T02:50:16;8.35;;;4.55;;
70165;SDS011;57541;47.408;18.822;2023-04-03T02:50:47;7.75;;;4.32;;
70165;SDS011;57541;47.408;18.822;2023-04-03T02:51:19;8.50;;;4.70;;
70165;SDS011;57541;47.408;18.822;2023-04-03T02:51:51;8.43;;;4.55;;
70165;SDS011;57541;47.408;18.822;2023-04-03T02:52:22;9.30;;;4.45;;
70165;SDS011;57541;47.408;18.822;2023-04-03T02:52:54;8.63;;;4.57;;
70165;SDS011;57541;47.408;18.822;2023-04-03T02:53:26;9.00;;;4.78;;
70165;SDS011;57541;47.408;18.822;2023-04-03T02:53:58;8.70;;;4.50;;
70165;SDS011;57541;47.408;18.822;2023-04-03T02:54:29;8.82;;;4.85;;
70165;SDS011;57541;47.408;18.822;2023-04-03T02:55:01;9.55;;;4.93;;
70165;SDS011;57541;47.408;18.822;2023-04-03T02:55:34;8.73;;;4.57;;
70165;SDS011;57541;47.408;18.822;2023-04-03T02:56:05;9.07;;;4.60;;
70165;SDS011;57541;47.408;18.822;2023-04-03T02:56:37;8.93;;;4.97;;
70165;SDS011;57541;47.408;18.822;2023-04-03T02:57:08;8.65;;;4.63;;
70165;SDS011;57541;47.408;18.822;2023-04-03T02:57:40;8.55;;;4.50;;
70165;SDS011;57541;47.408;18.822;2023-04-03T02:58:12;9.63;;;4.88;;
70165;SDS011;57541;47.408;18.822;2023-04-03T02:58:44;9.93;;;4.78;;
70165;SDS011;57541;47.408;18.822;2023-04-03T02:59:16;8.57;;;4.70;;
70165;SDS011;57541;47.408;18.822;2023-04-03T02:59:48;8.55;;;4.65;;
70165;SDS011;57541;47.408;18.822;2023-04-03T03:00:19;9.45;;;5.25;;
70165;SDS011;57541;47.408;18.822;2023-04-03T03:00:51;9.43;;;5.32;;
70165;SDS011;57541;47.408;18.822;2023-04-03T03:01:23;9.38;;;4.90;;
70165;SDS011;57541;47.408;18.822;2023-04-03T03:01:55;8.70;;;4.30;;
70165;SDS011;57541;47.408;18.822;2023-04-03T03:02:27;9.38;;;4.80;;
70165;SDS011;57541;47.408;18.822;2023-04-03T03:02:59;7.35;;;4.22;;
70165;SDS011;57541;47.408;18.822;2023-04-03T03:03:31;8.98;;;4.65;;
70165;SDS011;57541;47.408;18.822;2023-04-03T03:04:02;8.00;;;4.60;;
70165;SDS011;57541;47.408;18.822;2023-04-03T03:04:34;8.75;;;4.78;;
70165;SDS011;57541;47.408;18.822;2023-04-03T03:05:06;8.82;;;5.07;;
70165;SDS011;57541;47.408;18.822;2023-04-03T03:05:38;9.20;;;4.70;;
70165;SDS011;57541;47.408;18.822;2023-04-03T03:06:11;9.80;;;4.78;;
70165;SDS011;57541;47.408;18.822;2023-04-03T03:06:45;8.98;;;4.90;;
70165;SDS011;57541;47.408;18.822;2023-04-03T03:07:17;8.57;;;4.70;;
70165;SDS011;57541;47.408;18.822;2023-04-03T03:07:49;8.77;;;4.65;;
70165;SDS011;57541;47.408;18.822;2023-04-03T03:08:20;9.10;;;5.10;;
70165;SDS011;57541;47.408;18.822;2023-04-03T03:08:52;8.32;;;4.60;;
70165;SDS011;57541;47.408;18.822;2023-04-03T03:09:24;8.45;;;4.90;;
70165;SDS011;57541;47.408;18.822;2023-04-03T03:09:57;9.60;;;5.15;;
70165;SDS011;57541;47.408;18.822;2023-04-03T03:10:29;8.05;;;4.68;;
70165;SDS011;57541;47.408;18.822;2023-04-03T03:11:01;9.50;;;4.53;;
70165;SDS011;57541;47.408;18.822;2023-04-03T03:11:32;8.38;;;4.80;;
70165;SDS011;57541;47.408;18.822;2023-04-03T03:12:04;8.85;;;4.72;;
70165;SDS011;57541;47.408;18.822;2023-04-03T03:12:36;9.20;;;4.43;;
70165;SDS011;57541;47.408;18.822;2023-04-03T03:13:08;8.82;;;4.60;;
70165;SDS011;57541;47.408;18.822;2023-04-03T03:13:39;9.55;;;5.05;;
70165;SDS011;57541;47.408;18.822;2023-04-03T03:14:11;8.68;;;4.80;;
70165;SDS011;57541;47.408;18.822;2023-04-03T03:14:43;9.13;;;4.90;;
70165;SDS011;57541;47.408;18.822;2023-04-03T03:15:14;8.20;;;4.65;;
70165;SDS011;57541;47.408;18.822;2023-04-03T03:15:46;9.27;;;4.80;;
70165;SDS011;57541;47.408;18.822;2023-04-03T03:16:18;9.63;;;5.25;;
70165;SDS011;57541;47.408;18.822;2023-04-03T03:16:50;8.75;;;4.82;;
70165;SDS011;57541;47.408;18.822;2023-04-03T03:17:21;8.88;;;4.38;;
70165;SDS011;57541;47.408;18.822;2023-04-03T03:17:53;8.30;;;4.45;;